createdAt,value
2018-08-16T00:00:36.698Z,19.60
2018-08-16T00:03:05.992Z,19.70
2018-08-16T00:05:34.863Z,19.60
2018-08-16T00:08:03.291Z,19.60
2018-08-16T00:10:31.730Z,19.60
2018-08-16T00:13:00.925Z,19.60
2018-08-16T00:15:29.427Z,19.50
2018-08-16T00:17:57.899Z,19.40
2018-08-16T00:20:26.305Z,19.30
2018-08-16T00:22:54.735Z,19.30
2018-08-16T00:25:23.166Z,19.20
2018-08-16T00:27:51.539Z,19.20
2018-08-16T00:30:20.441Z,19.10
2018-08-16T00:32:49.110Z,19.00
2018-08-16T00:35:17.731Z,19.00
2018-08-16T00:37:46.145Z,18.90
2018-08-16T00:40:15.871Z,18.90
2018-08-16T00:42:44.286Z,18.80
2018-08-16T00:45:13.142Z,18.80
2018-08-16T00:47:41.564Z,18.70
2018-08-16T00:50:12.934Z,18.80
2018-08-16T00:52:41.360Z,18.70
2018-08-16T00:55:11.016Z,18.70
2018-08-16T00:57:39.573Z,18.70
2018-08-16T01:00:10.801Z,18.60
2018-08-16T01:02:39.224Z,18.60
2018-08-16T01:05:07.670Z,18.60
2018-08-16T01:07:36.118Z,18.50
2018-08-16T01:10:06.170Z,18.50
2018-08-16T01:12:34.579Z,18.50
2018-08-16T01:15:03.085Z,18.50
2018-08-16T01:17:31.509Z,18.40
2018-08-16T01:19:59.882Z,18.40
2018-08-16T01:22:28.361Z,18.40
2018-08-16T01:24:56.806Z,18.40
2018-08-16T01:27:25.247Z,18.40
2018-08-16T01:29:53.683Z,18.40
2018-08-16T01:32:22.111Z,18.50
2018-08-16T01:34:50.526Z,18.50
2018-08-16T01:37:18.952Z,18.40
2018-08-16T01:39:47.337Z,18.50
2018-08-16T01:42:15.758Z,18.50
2018-08-16T01:44:44.130Z,18.60
2018-08-16T01:47:12.628Z,18.50
2018-08-16T01:49:41.149Z,18.50
2018-08-16T01:52:09.542Z,18.50
2018-08-16T01:54:37.956Z,18.50
2018-08-16T01:57:06.556Z,18.50
2018-08-16T01:59:34.946Z,18.40
2018-08-16T02:02:03.426Z,18.40
2018-08-16T02:04:31.966Z,18.40
2018-08-16T02:07:01.106Z,18.40
2018-08-16T02:09:29.975Z,18.40
2018-08-16T02:11:59.418Z,18.40
2018-08-16T02:14:27.829Z,18.30
2018-08-16T02:16:56.224Z,18.30
2018-08-16T02:19:24.596Z,18.30
2018-08-16T02:21:52.975Z,18.20
2018-08-16T02:24:21.325Z,18.20
2018-08-16T02:26:49.677Z,18.20
2018-08-16T02:29:18.042Z,18.20
2018-08-16T02:31:46.466Z,18.10
2018-08-16T02:34:14.856Z,18.10
2018-08-16T02:36:43.410Z,18.10
2018-08-16T02:39:11.999Z,18.10
2018-08-16T02:41:40.758Z,18.00
2018-08-16T02:44:09.422Z,18.00
2018-08-16T02:46:37.820Z,18.00
2018-08-16T02:49:06.422Z,18.00
2018-08-16T02:51:34.840Z,18.00
2018-08-16T02:54:03.350Z,18.00
2018-08-16T02:56:31.842Z,18.00
2018-08-16T02:59:00.360Z,17.90
2018-08-16T03:01:28.823Z,17.90
2018-08-16T03:03:57.169Z,17.90
2018-08-16T03:06:25.518Z,17.90
2018-08-16T03:08:54.281Z,17.80
2018-08-16T03:11:22.624Z,17.80
2018-08-16T03:13:51.035Z,17.80
2018-08-16T03:16:19.674Z,17.80
2018-08-16T03:18:48.035Z,17.80
2018-08-16T03:21:16.369Z,17.70
2018-08-16T03:23:44.802Z,17.60
2018-08-16T03:26:13.126Z,17.60
2018-08-16T03:28:41.519Z,17.50
2018-08-16T03:31:09.889Z,17.50
2018-08-16T03:33:38.265Z,17.50
2018-08-16T03:36:06.667Z,17.50
2018-08-16T03:38:35.113Z,17.50
2018-08-16T03:41:03.803Z,17.50
2018-08-16T03:43:32.210Z,17.50
2018-08-16T03:46:00.902Z,17.50
2018-08-16T03:48:30.114Z,17.50
2018-08-16T03:50:58.496Z,17.50
2018-08-16T03:53:26.871Z,17.50
2018-08-16T03:55:55.337Z,17.50
2018-08-16T03:58:23.713Z,17.50
2018-08-16T04:00:52.101Z,17.50
2018-08-16T04:03:20.524Z,17.40
2018-08-16T04:05:48.975Z,17.40
2018-08-16T04:08:17.319Z,17.30
2018-08-16T04:10:45.665Z,17.30
2018-08-16T04:13:14.029Z,17.30
2018-08-16T04:15:42.365Z,17.30
2018-08-16T04:18:10.751Z,17.30
2018-08-16T04:20:39.126Z,17.30
2018-08-16T04:23:07.531Z,17.20
2018-08-16T04:25:35.976Z,17.20
2018-08-16T04:28:04.611Z,17.20
2018-08-16T04:30:32.992Z,17.10
2018-08-16T04:33:01.410Z,17.10
2018-08-16T04:35:29.811Z,17.10
2018-08-16T04:37:58.144Z,17.10
2018-08-16T04:40:26.820Z,17.10
2018-08-16T04:42:55.255Z,17.10
2018-08-16T04:45:23.694Z,17.10
2018-08-16T04:47:52.053Z,17.20
2018-08-16T04:50:20.509Z,17.20
2018-08-16T04:52:48.838Z,17.20
2018-08-16T04:55:17.246Z,17.20
2018-08-16T04:57:45.622Z,17.30
2018-08-16T05:00:20.655Z,17.30
2018-08-16T05:02:49.134Z,17.30
2018-08-16T05:05:17.537Z,17.40
2018-08-16T05:07:45.906Z,17.40
2018-08-16T05:10:14.329Z,17.50
2018-08-16T05:12:42.811Z,17.50
2018-08-16T05:15:12.702Z,17.60
2018-08-16T05:17:41.182Z,17.60
2018-08-16T05:20:12.152Z,17.70
2018-08-16T05:22:41.567Z,17.70
2018-08-16T05:25:10.134Z,17.80
2018-08-16T05:27:38.496Z,17.90
2018-08-16T05:30:08.953Z,17.90
2018-08-16T05:32:37.338Z,18.00
2018-08-16T05:35:06.194Z,18.10
2018-08-16T05:37:35.081Z,18.10
2018-08-16T05:40:04.210Z,18.20
2018-08-16T05:42:32.642Z,18.30
2018-08-16T05:45:02.007Z,18.40
2018-08-16T05:47:30.461Z,18.50
2018-08-16T05:49:59.285Z,18.60
2018-08-16T05:52:27.662Z,18.80
2018-08-16T05:54:56.227Z,18.90
2018-08-16T05:57:24.605Z,19.00
2018-08-16T05:59:53.012Z,19.10
2018-08-16T06:02:21.651Z,19.20
2018-08-16T06:04:50.046Z,19.20
2018-08-16T06:07:18.429Z,19.20
2018-08-16T06:09:46.863Z,19.30
2018-08-16T06:12:15.274Z,19.30
2018-08-16T06:14:43.720Z,19.30
2018-08-16T06:17:12.138Z,19.50
2018-08-16T06:19:40.562Z,19.60
2018-08-16T06:22:08.938Z,19.70
2018-08-16T06:24:37.335Z,19.80
2018-08-16T06:27:06.601Z,19.90
2018-08-16T06:29:35.150Z,20.00
2018-08-16T06:32:03.663Z,20.10
2018-08-16T06:34:32.256Z,20.20
2018-08-16T06:37:00.633Z,20.30
2018-08-16T06:39:29.059Z,20.40
2018-08-16T06:41:57.431Z,20.50
2018-08-16T06:44:26.304Z,20.50
2018-08-16T06:46:54.733Z,20.60
2018-08-16T06:49:23.244Z,20.60
2018-08-16T06:51:51.673Z,20.70
2018-08-16T06:54:20.065Z,20.80
2018-08-16T06:56:48.477Z,21.00
2018-08-16T06:59:17.006Z,21.10
2018-08-16T07:01:45.629Z,21.10
2018-08-16T07:04:14.859Z,21.20
2018-08-16T07:06:43.325Z,21.30
2018-08-16T07:09:12.270Z,21.40
2018-08-16T07:11:40.875Z,21.60
2018-08-16T07:14:09.268Z,21.70
2018-08-16T07:16:37.722Z,21.70
2018-08-16T07:19:06.155Z,21.80
2018-08-16T07:21:34.617Z,22.00
2018-08-16T07:24:03.183Z,22.10
2018-08-16T07:26:31.896Z,22.20
2018-08-16T07:29:00.293Z,22.30
2018-08-16T07:31:28.770Z,22.40
2018-08-16T07:33:57.161Z,22.50
2018-08-16T07:36:25.608Z,22.50
2018-08-16T07:38:54.335Z,22.40
2018-08-16T07:41:22.831Z,22.50
2018-08-16T07:43:51.249Z,22.60
2018-08-16T07:46:19.790Z,22.70
2018-08-16T07:48:48.347Z,22.70
2018-08-16T07:51:16.906Z,22.70
2018-08-16T07:53:45.282Z,22.80
2018-08-16T07:56:13.689Z,22.90
2018-08-16T07:58:42.082Z,23.10
2018-08-16T08:01:10.982Z,23.30
2018-08-16T08:03:39.534Z,23.40
2018-08-16T08:06:08.184Z,23.50
2018-08-16T08:08:36.565Z,23.60
2018-08-16T08:11:05.383Z,23.80
2018-08-16T08:13:33.819Z,23.90
2018-08-16T08:16:02.231Z,24.00
2018-08-16T08:18:30.873Z,24.20
2018-08-16T08:20:59.284Z,24.30
2018-08-16T08:23:30.075Z,24.30
2018-08-16T08:25:58.570Z,24.30
2018-08-16T08:28:28.186Z,24.40
2018-08-16T08:30:56.577Z,24.50
2018-08-16T08:33:25.083Z,24.60
2018-08-16T08:36:04.944Z,24.70
2018-08-16T08:38:34.537Z,24.80
2018-08-16T08:41:02.878Z,24.80
2018-08-16T08:43:42.709Z,24.90
2018-08-16T08:46:11.121Z,25.00
2018-08-16T08:48:39.646Z,25.10
2018-08-16T08:51:08.040Z,25.20
2018-08-16T08:54:59.771Z,25.30
2018-08-16T08:57:39.624Z,25.30
2018-08-16T09:00:08.330Z,25.40
2018-08-16T09:02:36.834Z,25.50
2018-08-16T09:05:06.848Z,25.50
2018-08-16T09:07:35.249Z,25.60
2018-08-16T09:11:14.403Z,25.80
2018-08-16T09:13:55.325Z,25.90
2018-08-16T09:16:34.172Z,26.10
2018-08-16T09:19:03.209Z,26.30
2018-08-16T09:21:32.141Z,26.40
2018-08-16T09:24:00.591Z,26.50
2018-08-16T09:26:34.510Z,26.60
2018-08-16T09:29:06.110Z,26.50
2018-08-16T09:31:45.773Z,26.50
2018-08-16T09:34:19.528Z,26.60
2018-08-16T09:36:47.951Z,26.70
2018-08-16T09:39:16.481Z,26.70
2018-08-16T09:41:44.904Z,26.90
2018-08-16T09:44:13.321Z,27.00
2018-08-16T09:47:08.587Z,27.10
2018-08-16T09:49:40.876Z,27.10
2018-08-16T09:52:10.207Z,27.20
2018-08-16T09:54:38.638Z,27.30
2018-08-16T09:57:08.305Z,27.40
2018-08-16T09:59:36.768Z,27.40
2018-08-16T10:02:06.367Z,27.40
2018-08-16T10:04:34.885Z,27.50
2018-08-16T10:07:03.384Z,27.50
2018-08-16T10:09:32.476Z,27.50
2018-08-16T10:12:01.985Z,27.50
2018-08-16T10:14:30.572Z,27.60
2018-08-16T10:16:59.115Z,27.70
2018-08-16T10:19:28.070Z,27.70
2018-08-16T10:21:56.492Z,27.80
2018-08-16T10:24:24.933Z,27.90
2018-08-16T10:26:53.397Z,28.00
2018-08-16T10:29:22.822Z,28.20
2018-08-16T10:31:51.278Z,28.40
2018-08-16T10:34:19.681Z,28.60
2018-08-16T10:36:48.025Z,28.70
2018-08-16T10:39:17.634Z,29.00
2018-08-16T10:41:46.058Z,29.20
2018-08-16T10:44:14.841Z,29.30
2018-08-16T10:46:43.325Z,29.60
2018-08-16T10:49:11.752Z,29.50
2018-08-16T10:51:40.177Z,29.90
2018-08-16T10:54:08.751Z,30.10
2018-08-16T10:56:37.154Z,30.20
2018-08-16T10:59:05.798Z,30.20
2018-08-16T11:01:34.164Z,30.50
2018-08-16T11:04:02.570Z,30.70
2018-08-16T11:06:31.799Z,31.00
2018-08-16T11:09:00.219Z,31.10
2018-08-16T11:11:28.719Z,31.40
2018-08-16T11:15:00.179Z,31.50
2018-08-16T11:17:28.546Z,31.60
2018-08-16T11:19:57.180Z,31.90
2018-08-16T11:22:25.799Z,32.10
2018-08-16T11:24:54.744Z,32.00
2018-08-16T11:27:23.083Z,32.30
2018-08-16T11:29:51.474Z,32.80
2018-08-16T11:32:19.850Z,32.80
2018-08-16T11:34:48.203Z,32.70
2018-08-16T11:37:17.425Z,32.90
2018-08-16T11:39:45.828Z,33.20
2018-08-16T11:42:14.199Z,33.50
2018-08-16T11:44:43.142Z,33.90
2018-08-16T11:47:11.674Z,34.10
2018-08-16T11:49:40.191Z,34.40
2018-08-16T11:52:08.542Z,35.00
2018-08-16T11:54:36.994Z,35.40
2018-08-16T11:57:05.905Z,35.60
2018-08-16T11:59:35.311Z,35.90
2018-08-16T12:02:03.897Z,36.70
2018-08-16T12:04:32.376Z,36.30
2018-08-16T12:07:00.786Z,36.40
2018-08-16T12:09:29.415Z,36.30
2018-08-16T12:11:57.834Z,36.20
2018-08-16T12:14:26.312Z,36.80
2018-08-16T12:16:54.783Z,37.90
2018-08-16T12:19:23.115Z,37.60
2018-08-16T12:21:51.597Z,37.50
2018-08-16T12:24:20.035Z,37.20
2018-08-16T12:26:48.529Z,37.20
2018-08-16T12:29:16.959Z,37.00
2018-08-16T12:31:46.940Z,37.40
2018-08-16T12:34:15.398Z,37.90
2018-08-16T12:36:43.853Z,39.00
2018-08-16T12:39:12.253Z,38.70
2018-08-16T12:41:40.826Z,38.30
2018-08-16T12:44:09.358Z,38.40
2018-08-16T12:46:38.007Z,38.70
2018-08-16T12:49:07.641Z,39.20
2018-08-16T12:51:36.111Z,39.50
2018-08-16T12:54:04.574Z,39.70
2018-08-16T12:56:32.991Z,40.80
2018-08-16T12:59:01.453Z,40.30
2018-08-16T13:01:30.044Z,40.40
2018-08-16T13:03:59.147Z,40.30
2018-08-16T13:06:27.633Z,40.60
2018-08-16T13:08:56.087Z,40.70
2018-08-16T13:11:24.521Z,41.10
2018-08-16T13:13:52.923Z,41.20
2018-08-16T13:16:21.420Z,41.20
2018-08-16T13:18:49.837Z,41.60
2018-08-16T13:21:18.450Z,41.60
2018-08-16T13:23:46.867Z,41.40
2018-08-16T13:26:15.283Z,42.00
2018-08-16T13:28:43.710Z,41.60
2018-08-16T13:31:12.104Z,41.20
2018-08-16T13:33:40.600Z,41.80
2018-08-16T13:36:09.044Z,42.80
2018-08-16T13:38:37.441Z,42.80
2018-08-16T13:41:07.323Z,42.90
2018-08-16T13:43:35.737Z,43.40
2018-08-16T13:46:04.163Z,43.30
2018-08-16T13:48:32.783Z,44.00
2018-08-16T13:51:01.137Z,44.10
2018-08-16T13:53:29.562Z,44.40
2018-08-16T13:55:58.302Z,44.50
2018-08-16T13:58:26.738Z,44.80
2018-08-16T14:00:55.112Z,44.70
2018-08-16T14:03:23.687Z,44.80
2018-08-16T14:05:52.066Z,44.90
2018-08-16T14:08:20.515Z,45.10
2018-08-16T14:10:50.648Z,45.20
2018-08-16T14:13:19.839Z,45.10
2018-08-16T14:15:48.183Z,44.40
2018-08-16T14:18:16.664Z,45.10
2018-08-16T14:20:45.078Z,44.40
2018-08-16T14:23:13.806Z,44.20
2018-08-16T14:25:42.351Z,44.40
2018-08-16T14:28:10.907Z,44.40
2018-08-16T14:30:46.459Z,45.30
2018-08-16T14:33:14.863Z,45.20
2018-08-16T14:35:43.957Z,45.20
2018-08-16T14:38:12.356Z,44.50
2018-08-16T14:40:40.939Z,44.60
2018-08-16T14:43:09.407Z,45.20
2018-08-16T14:45:37.790Z,45.50
2018-08-16T14:48:09.583Z,45.80
2018-08-16T14:50:39.497Z,46.10
2018-08-16T14:53:07.984Z,46.60
2018-08-16T14:55:36.672Z,46.60
2018-08-16T14:58:05.584Z,46.80
2018-08-16T15:00:34.107Z,47.40
2018-08-16T15:03:03.361Z,47.20
2018-08-16T15:05:32.015Z,46.30
2018-08-16T15:08:00.549Z,45.70
2018-08-16T15:10:28.969Z,45.70
2018-08-16T15:12:57.410Z,45.50
2018-08-16T15:15:25.887Z,45.40
2018-08-16T15:17:54.300Z,45.90
2018-08-16T15:20:23.063Z,45.60
2018-08-16T15:22:51.541Z,45.80
2018-08-16T15:25:20.384Z,46.00
2018-08-16T15:27:48.769Z,46.50
2018-08-16T15:30:17.314Z,46.80
2018-08-16T15:32:45.841Z,47.00
2018-08-16T15:35:14.197Z,47.00
2018-08-16T15:37:43.036Z,46.70
2018-08-16T15:40:11.404Z,46.90
2018-08-16T15:42:39.993Z,46.90
2018-08-16T15:45:08.548Z,46.60
2018-08-16T15:47:37.001Z,46.90
2018-08-16T15:50:06.012Z,46.90
2018-08-16T15:52:34.431Z,47.00
2018-08-16T15:55:02.781Z,47.10
2018-08-16T15:57:35.890Z,47.20
2018-08-16T16:00:05.389Z,48.00
2018-08-16T16:02:33.797Z,48.20
2018-08-16T16:05:02.216Z,47.60
2018-08-16T16:07:30.686Z,47.40
2018-08-16T16:09:59.082Z,46.80
2018-08-16T16:12:27.516Z,46.30
2018-08-16T16:14:55.901Z,45.90
2018-08-16T16:17:24.378Z,45.20
2018-08-16T16:19:52.745Z,44.60
2018-08-16T16:22:21.141Z,44.70
2018-08-16T16:24:53.331Z,44.50
2018-08-16T16:27:21.834Z,44.50
2018-08-16T16:29:50.217Z,45.00
2018-08-16T16:32:18.619Z,45.30
2018-08-16T16:34:47.267Z,45.50
2018-08-16T16:37:16.283Z,45.20
2018-08-16T16:39:44.759Z,45.80
2018-08-16T16:42:13.136Z,46.10
2018-08-16T16:44:41.902Z,46.50
2018-08-16T16:47:10.623Z,46.40
2018-08-16T16:49:39.132Z,45.70
2018-08-16T16:52:07.913Z,45.70
2018-08-16T16:54:36.357Z,45.10
2018-08-16T16:57:04.829Z,45.10
2018-08-16T16:59:33.254Z,45.40
2018-08-16T17:02:01.720Z,45.40
2018-08-16T17:04:30.104Z,45.70
2018-08-16T17:06:59.399Z,46.20
2018-08-16T17:09:27.839Z,45.90
2018-08-16T17:11:56.232Z,45.50
2018-08-16T17:14:24.656Z,45.40
2018-08-16T17:16:53.694Z,45.50
2018-08-16T17:19:22.102Z,45.40
2018-08-16T17:21:50.448Z,45.40
2018-08-16T17:24:18.849Z,44.90
2018-08-16T17:26:47.595Z,44.60
2018-08-16T17:29:16.559Z,44.80
2018-08-16T17:31:44.903Z,44.60
2018-08-16T17:34:13.410Z,44.80
2018-08-16T17:36:41.876Z,44.30
2018-08-16T17:39:10.346Z,43.90
2018-08-16T17:41:39.156Z,43.10
2018-08-16T17:44:07.771Z,42.40
2018-08-16T17:46:42.783Z,42.20
2018-08-16T17:49:11.230Z,41.70
2018-08-16T17:51:39.962Z,41.20
2018-08-16T17:54:08.337Z,40.90
2018-08-16T17:56:36.952Z,40.80
2018-08-16T17:59:05.311Z,40.20
2018-08-16T18:01:33.725Z,40.10
2018-08-16T18:04:02.436Z,39.90
2018-08-16T18:06:30.838Z,39.80
2018-08-16T18:08:59.297Z,39.50
2018-08-16T18:11:27.703Z,39.10
2018-08-16T18:13:56.058Z,38.90
2018-08-16T18:16:24.882Z,38.60
2018-08-16T18:18:53.259Z,38.00
2018-08-16T18:21:21.653Z,37.30
2018-08-16T18:23:50.031Z,36.70
2018-08-16T18:26:18.431Z,36.10
2018-08-16T18:28:47.635Z,35.30
2018-08-16T18:31:16.279Z,34.60
2018-08-16T18:33:44.658Z,33.70
2018-08-16T18:36:13.102Z,33.00
2018-08-16T18:38:41.492Z,32.30
2018-08-16T18:41:10.186Z,31.70
2018-08-16T18:43:38.817Z,31.20
2018-08-16T18:46:07.897Z,30.90
2018-08-16T18:48:36.212Z,30.70
2018-08-16T18:51:04.675Z,30.50
2018-08-16T18:53:33.136Z,30.20
2018-08-16T18:56:01.598Z,29.90
2018-08-16T18:58:29.960Z,29.60
2018-08-16T19:00:58.490Z,29.50
2018-08-16T19:03:26.840Z,29.40
2018-08-16T19:05:55.243Z,29.20
2018-08-16T19:08:23.633Z,29.10
2018-08-16T19:10:52.018Z,28.90
2018-08-16T19:13:20.486Z,28.80
2018-08-16T19:15:48.873Z,28.70
2018-08-16T19:18:17.245Z,28.50
2018-08-16T19:20:45.653Z,28.50
2018-08-16T19:23:14.074Z,28.30
2018-08-16T19:25:42.603Z,28.20
2018-08-16T19:28:10.958Z,28.20
2018-08-16T19:30:39.484Z,28.20
2018-08-16T19:33:08.240Z,28.00
2018-08-16T19:35:36.684Z,27.80
2018-08-16T19:38:05.342Z,27.90
2018-08-16T19:40:33.777Z,27.70
2018-08-16T19:43:02.389Z,27.40
2018-08-16T19:45:30.806Z,27.40
2018-08-16T19:47:59.304Z,27.30
2018-08-16T19:50:27.680Z,27.30
2018-08-16T19:52:56.317Z,27.30
2018-08-16T19:55:24.770Z,27.20
2018-08-16T19:57:53.233Z,27.20
2018-08-16T20:00:21.641Z,27.10
2018-08-16T20:02:50.075Z,27.10
2018-08-16T20:05:18.474Z,27.00
2018-08-16T20:07:46.931Z,26.90
2018-08-16T20:10:15.371Z,26.90
2018-08-16T20:12:43.922Z,26.80
2018-08-16T20:15:12.312Z,26.80
2018-08-16T20:17:40.706Z,26.70
2018-08-16T20:20:09.276Z,26.70
2018-08-16T20:22:37.670Z,26.60
2018-08-16T20:25:06.555Z,26.60
2018-08-16T20:27:35.025Z,26.50
2018-08-16T20:30:03.442Z,26.50
2018-08-16T20:32:31.937Z,26.40
2018-08-16T20:35:00.337Z,26.30
2018-08-16T20:37:28.697Z,26.30
2018-08-16T20:39:57.172Z,26.30
2018-08-16T20:42:25.582Z,26.20
2018-08-16T20:44:53.999Z,26.10
2018-08-16T20:47:22.542Z,26.10
2018-08-16T20:49:51.221Z,26.10
2018-08-16T20:52:19.657Z,26.10
2018-08-16T20:54:48.050Z,25.90
2018-08-16T20:57:16.557Z,26.00
2018-08-16T20:59:44.951Z,25.90
2018-08-16T21:02:13.947Z,25.90
2018-08-16T21:04:42.722Z,25.90
2018-08-16T21:07:11.271Z,25.80
2018-08-16T21:09:41.641Z,25.60
2018-08-16T21:12:10.085Z,25.60
2018-08-16T21:14:38.447Z,25.50
2018-08-16T21:17:06.838Z,25.40
2018-08-16T21:19:35.186Z,25.30
2018-08-16T21:22:03.746Z,25.30
2018-08-16T21:24:32.339Z,25.10
2018-08-16T21:27:00.773Z,25.00
2018-08-16T21:29:29.301Z,25.00
2018-08-16T21:31:57.685Z,24.80
2018-08-16T21:34:26.655Z,24.80
2018-08-16T21:36:55.365Z,24.80
2018-08-16T21:39:23.743Z,24.80
2018-08-16T21:41:52.193Z,24.70
2018-08-16T21:44:20.542Z,24.60
2018-08-16T21:46:48.950Z,24.60
2018-08-16T21:49:17.329Z,24.50
2018-08-16T21:51:46.263Z,24.40
2018-08-16T21:54:16.269Z,24.30
2018-08-16T21:56:45.709Z,24.20
2018-08-16T21:59:14.442Z,24.30
2018-08-16T22:01:43.072Z,24.20
2018-08-16T22:04:11.473Z,24.20
2018-08-16T22:06:51.407Z,24.10
2018-08-16T22:09:19.805Z,24.10
2018-08-16T22:11:49.226Z,24.10
2018-08-16T22:14:17.658Z,24.10
2018-08-16T22:16:46.003Z,24.00
2018-08-16T22:19:14.473Z,24.00
2018-08-16T22:21:43.182Z,23.90
2018-08-16T22:24:11.614Z,23.90
2018-08-16T22:26:40.000Z,23.90
2018-08-16T22:29:09.204Z,23.80
2018-08-16T22:31:37.716Z,23.80
2018-08-16T22:34:06.155Z,23.80
2018-08-16T22:36:34.528Z,23.80
2018-08-16T22:39:03.502Z,23.60
2018-08-16T22:41:31.979Z,23.70
2018-08-16T22:44:00.336Z,23.60
2018-08-16T22:46:28.671Z,23.60
2018-08-16T22:48:57.079Z,23.60
2018-08-16T22:51:25.474Z,23.60
2018-08-16T22:53:53.922Z,23.60
2018-08-16T22:56:22.275Z,23.70
2018-08-16T22:58:50.647Z,23.60
2018-08-16T23:01:20.103Z,23.60
2018-08-16T23:03:48.666Z,23.50
2018-08-16T23:06:17.510Z,23.50
2018-08-16T23:08:45.872Z,23.40
2018-08-16T23:11:14.251Z,23.40
2018-08-16T23:13:42.588Z,23.40
2018-08-16T23:16:11.013Z,23.30
2018-08-16T23:18:39.406Z,23.30
2018-08-16T23:21:08.668Z,23.30
2018-08-16T23:23:37.080Z,23.20
2018-08-16T23:26:05.584Z,23.20
2018-08-16T23:28:35.238Z,23.20
2018-08-16T23:31:03.645Z,23.20
2018-08-16T23:33:32.141Z,23.10
2018-08-16T23:36:00.525Z,23.10
2018-08-16T23:38:28.890Z,23.10
2018-08-16T23:40:57.293Z,23.00
2018-08-16T23:43:26.888Z,23.00
2018-08-16T23:45:55.277Z,23.10
2018-08-16T23:48:30.562Z,23.10
2018-08-16T23:50:59.225Z,23.10
2018-08-16T23:53:28.013Z,23.00
2018-08-16T23:55:57.410Z,23.00
2018-08-16T23:58:25.763Z,22.90
